createdAt,value
2023-02-03T00:00:14.981Z,5.30
2023-02-03T00:01:15.097Z,7.70
2023-02-03T00:02:15.333Z,11.90
2023-02-03T00:03:15.405Z,7.60
2023-02-03T00:04:15.516Z,4.10
2023-02-03T00:05:15.617Z,17.30
2023-02-03T00:06:15.747Z,10.50
2023-02-03T00:07:15.849Z,13.90
2023-02-03T00:08:16.049Z,9.90
2023-02-03T00:09:16.139Z,10.10
2023-02-03T00:10:16.232Z,9.00
2023-02-03T00:11:16.361Z,4.30
2023-02-03T00:12:16.469Z,5.30
2023-02-03T00:13:16.596Z,6.90
2023-02-03T00:14:16.686Z,6.30
2023-02-03T00:15:16.791Z,4.70
2023-02-03T00:16:16.948Z,5.60
2023-02-03T00:17:17.038Z,4.40
2023-02-03T00:18:17.150Z,4.50
2023-02-03T00:19:17.789Z,5.20
2023-02-03T00:20:17.460Z,4.70
2023-02-03T00:21:17.614Z,4.40
2023-02-03T00:22:17.715Z,4.20
2023-02-03T00:23:17.814Z,4.30
2023-02-03T00:24:18.029Z,4.70
2023-02-03T00:25:18.128Z,4.60
2023-02-03T00:26:18.251Z,5.50
2023-02-03T00:27:18.367Z,5.20
2023-02-03T00:28:18.502Z,5.00
2023-02-03T00:29:18.599Z,4.60
2023-02-03T00:30:18.707Z,4.80
2023-02-03T00:31:18.947Z,5.10
2023-02-03T00:32:19.058Z,4.70
2023-02-03T00:33:19.094Z,4.60
2023-02-03T00:34:19.328Z,4.60
2023-02-03T00:35:19.413Z,5.10
2023-02-03T00:36:19.652Z,4.60
2023-02-03T00:37:19.741Z,5.20
2023-02-03T00:38:19.867Z,5.20
2023-02-03T00:39:19.981Z,5.40
2023-02-03T00:40:20.084Z,5.00
2023-02-03T00:41:20.220Z,5.70
2023-02-03T00:42:20.316Z,5.50
2023-02-03T00:43:20.417Z,4.90
2023-02-03T00:44:20.539Z,5.30
2023-02-03T00:45:20.654Z,5.60
2023-02-03T00:46:20.792Z,5.90
2023-02-03T00:47:20.883Z,5.80
2023-02-03T00:48:20.988Z,6.30
2023-02-03T00:49:21.093Z,6.50
2023-02-03T00:50:21.201Z,6.10
2023-02-03T00:51:21.316Z,6.90
2023-02-03T00:52:21.431Z,6.70
2023-02-03T00:53:21.548Z,7.10
2023-02-03T00:54:21.692Z,7.60
2023-02-03T00:55:21.812Z,8.10
2023-02-03T00:56:21.961Z,8.00
2023-02-03T00:57:22.092Z,8.40
2023-02-03T00:58:22.222Z,8.70
2023-02-03T00:59:22.355Z,8.60
2023-02-03T01:00:22.463Z,9.50
2023-02-03T01:01:22.632Z,8.70
2023-02-03T01:02:22.792Z,9.40
2023-02-03T01:03:22.905Z,10.00
2023-02-03T01:04:23.074Z,10.80
2023-02-03T01:05:23.163Z,12.00
2023-02-03T01:06:23.306Z,11.10
2023-02-03T01:07:23.423Z,11.30
2023-02-03T01:08:23.544Z,10.60
2023-02-03T01:09:23.659Z,10.30
2023-02-03T01:10:23.906Z,10.90
2023-02-03T01:11:23.954Z,12.10
2023-02-03T01:12:24.077Z,12.30
2023-02-03T01:13:24.188Z,12.20
2023-02-03T01:14:24.412Z,12.40
2023-02-03T01:15:24.517Z,12.20
2023-02-03T01:16:25.652Z,12.00
2023-02-03T01:17:24.782Z,12.20
2023-02-03T01:18:24.888Z,15.10
2023-02-03T01:19:25.010Z,14.90
2023-02-03T01:20:25.755Z,14.60
2023-02-03T01:21:25.323Z,15.50
2023-02-03T01:22:25.441Z,16.90
2023-02-03T01:23:25.547Z,14.90
2023-02-03T01:24:25.780Z,17.50
2023-02-03T01:25:25.882Z,17.90
2023-02-03T01:26:26.018Z,18.20
2023-02-03T01:27:26.152Z,19.10
2023-02-03T01:28:26.276Z,20.00
2023-02-03T01:29:26.384Z,21.20
2023-02-03T01:30:26.788Z,20.30
2023-02-03T01:31:26.734Z,20.60
2023-02-03T01:32:26.755Z,21.80
2023-02-03T01:33:26.864Z,21.70
2023-02-03T01:34:26.994Z,22.50
2023-02-03T01:35:27.103Z,23.40
2023-02-03T01:36:27.222Z,23.10
2023-02-03T01:37:27.328Z,24.10
2023-02-03T01:38:27.588Z,25.20
2023-02-03T01:39:27.582Z,25.80
2023-02-03T01:40:28.098Z,27.10
2023-02-03T01:41:27.901Z,26.20
2023-02-03T01:42:28.034Z,26.30
2023-02-03T01:43:28.146Z,25.10
2023-02-03T01:44:28.296Z,26.80
2023-02-03T01:45:28.433Z,26.70
2023-02-03T01:46:28.669Z,26.10
2023-02-03T01:47:28.664Z,27.30
2023-02-03T01:48:28.789Z,27.00
2023-02-03T01:49:28.905Z,26.70
2023-02-03T01:50:29.031Z,27.00
2023-02-03T01:51:29.174Z,27.90
2023-02-03T01:52:29.288Z,30.10
2023-02-03T01:53:29.426Z,30.80
2023-02-03T01:54:29.580Z,29.60
2023-02-03T01:55:29.697Z,30.20
2023-02-03T01:56:29.847Z,30.20
2023-02-03T01:57:29.977Z,31.50
2023-02-03T01:58:30.099Z,31.20
2023-02-03T01:59:30.230Z,31.50
2023-02-03T02:00:30.352Z,31.40
2023-02-03T02:01:30.576Z,31.00
2023-02-03T02:02:30.752Z,31.80
2023-02-03T02:03:30.833Z,31.70
2023-02-03T02:04:30.964Z,31.50
2023-02-03T02:05:31.113Z,29.20
2023-02-03T02:06:31.245Z,31.00
2023-02-03T02:07:31.374Z,30.30
2023-02-03T02:08:31.496Z,29.40
2023-02-03T02:09:31.644Z,29.70
2023-02-03T02:10:31.768Z,30.50
2023-02-03T02:11:31.913Z,31.30
2023-02-03T02:12:32.036Z,31.80
2023-02-03T02:13:32.157Z,30.70
2023-02-03T02:14:32.275Z,30.90
2023-02-03T02:15:32.481Z,31.30
2023-02-03T02:16:32.570Z,31.10
2023-02-03T02:17:32.693Z,30.90
2023-02-03T02:18:39.936Z,29.30
2023-02-03T02:19:33.026Z,29.90
2023-02-03T02:20:33.152Z,29.80
2023-02-03T02:21:35.036Z,28.50
2023-02-03T02:22:33.470Z,30.00
2023-02-03T02:23:33.614Z,29.30
2023-02-03T02:24:33.749Z,29.50
2023-02-03T02:25:33.899Z,29.00
2023-02-03T02:26:34.094Z,28.90
2023-02-03T02:27:34.241Z,29.00
2023-02-03T02:28:34.376Z,29.20
2023-02-03T02:29:34.498Z,29.30
2023-02-03T02:30:34.667Z,28.40
2023-02-03T02:31:35.054Z,29.40
2023-02-03T02:32:34.924Z,28.50
2023-02-03T02:33:35.095Z,28.50
2023-02-03T02:34:35.294Z,30.20
2023-02-03T02:35:35.481Z,29.10
2023-02-03T02:36:35.631Z,30.20
2023-02-03T02:37:35.800Z,30.10
2023-02-03T02:38:35.932Z,30.70
2023-02-03T02:39:36.080Z,30.30
2023-02-03T02:40:36.210Z,31.10
2023-02-03T02:41:36.424Z,32.30
2023-02-03T02:42:36.459Z,30.90
2023-02-03T02:43:36.617Z,32.30
2023-02-03T02:44:36.758Z,29.90
2023-02-03T02:45:36.943Z,30.60
2023-02-03T02:46:37.123Z,27.90
2023-02-03T02:47:37.311Z,29.50
2023-02-03T02:48:37.487Z,28.70
2023-02-03T02:49:37.662Z,31.00
2023-02-03T02:50:37.791Z,30.20
2023-02-03T02:51:37.963Z,31.10
2023-02-03T02:52:38.097Z,30.00
2023-02-03T02:53:38.260Z,30.50
2023-02-03T02:54:38.408Z,30.40
2023-02-03T02:55:38.553Z,27.80
2023-02-03T02:56:38.705Z,26.70
2023-02-03T02:57:38.884Z,27.10
2023-02-03T02:58:39.021Z,28.20
2023-02-03T02:59:39.207Z,28.70
2023-02-03T03:00:39.340Z,29.60
2023-02-03T03:01:39.609Z,29.50
2023-02-03T03:02:39.633Z,28.90
2023-02-03T03:03:39.796Z,28.10
2023-02-03T03:04:39.963Z,27.70
2023-02-03T03:05:40.112Z,28.50
2023-02-03T03:06:40.277Z,28.50
2023-02-03T03:07:40.428Z,29.10
2023-02-03T03:08:40.570Z,27.40
2023-02-03T03:09:40.725Z,28.80
2023-02-03T03:10:40.870Z,28.10
2023-02-03T03:11:41.037Z,28.60
2023-02-03T03:12:41.187Z,29.40
2023-02-03T03:13:41.354Z,28.20
2023-02-03T03:14:41.511Z,27.60
2023-02-03T03:15:41.701Z,28.10
2023-02-03T03:16:41.853Z,29.00
2023-02-03T03:17:42.001Z,27.80
2023-02-03T03:18:42.147Z,27.80
2023-02-03T03:19:42.308Z,24.10
2023-02-03T03:20:42.452Z,27.90
2023-02-03T03:21:42.625Z,41.00
2023-02-03T03:22:42.768Z,26.80
2023-02-03T03:23:42.905Z,29.60
2023-02-03T03:24:43.050Z,28.20
2023-02-03T03:25:43.215Z,26.60
2023-02-03T03:26:43.385Z,29.30
2023-02-03T03:27:43.594Z,28.30
2023-02-03T03:28:43.722Z,29.40
2023-02-03T03:29:43.912Z,32.20
2023-02-03T03:30:44.073Z,33.70
2023-02-03T03:31:44.289Z,39.30
2023-02-03T03:32:44.322Z,32.70
2023-02-03T03:33:44.495Z,30.80
2023-02-03T03:34:44.646Z,32.50
2023-02-03T03:35:44.794Z,31.60
2023-02-03T03:36:44.965Z,37.20
2023-02-03T03:37:45.117Z,38.00
2023-02-03T03:38:45.265Z,28.30
2023-02-03T03:39:45.446Z,29.60
2023-02-03T03:40:45.586Z,35.10
2023-02-03T03:41:45.766Z,27.70
2023-02-03T03:42:45.912Z,44.00
2023-02-03T03:43:46.061Z,30.90
2023-02-03T03:44:46.187Z,34.50
2023-02-03T03:45:46.325Z,32.00
2023-02-03T03:46:46.517Z,25.20
2023-02-03T03:47:46.648Z,48.50
2023-02-03T03:48:46.785Z,34.10
2023-02-03T03:49:46.958Z,29.80
2023-02-03T03:50:47.090Z,29.40
2023-02-03T03:51:47.245Z,25.60
2023-02-03T03:52:47.380Z,25.20
2023-02-03T03:53:47.542Z,56.50
2023-02-03T03:54:47.679Z,35.60
2023-02-03T03:55:47.886Z,34.00
2023-02-03T03:56:47.935Z,41.30
2023-02-03T03:57:48.102Z,24.40
2023-02-03T03:58:48.229Z,49.90
2023-02-03T03:59:48.368Z,30.20
2023-02-03T04:00:48.498Z,36.00
2023-02-03T04:01:48.784Z,32.70
2023-02-03T04:02:48.845Z,24.40
2023-02-03T04:03:48.907Z,28.40
2023-02-03T04:04:49.056Z,32.40
2023-02-03T04:05:49.190Z,25.50
2023-02-03T04:06:49.328Z,28.70
2023-02-03T04:07:49.465Z,26.50
2023-02-03T04:08:49.589Z,28.90
2023-02-03T04:09:49.740Z,28.40
2023-02-03T04:10:49.859Z,31.10
2023-02-03T04:11:50.031Z,32.40
2023-02-03T04:12:50.167Z,34.70
2023-02-03T04:13:50.311Z,28.90
2023-02-03T04:14:50.440Z,36.50
2023-02-03T04:15:50.567Z,35.00
2023-02-03T04:16:50.693Z,28.30
2023-02-03T04:17:50.835Z,29.80
2023-02-03T04:18:50.961Z,33.80
2023-02-03T04:19:51.086Z,32.80
2023-02-03T04:20:51.216Z,32.00
2023-02-03T04:21:51.354Z,38.30
2023-02-03T04:22:51.472Z,40.20
2023-02-03T04:23:51.601Z,29.20
2023-02-03T04:24:51.719Z,32.20
2023-02-03T04:25:51.866Z,31.50
2023-02-03T04:26:51.995Z,31.20
2023-02-03T04:27:52.146Z,32.00
2023-02-03T04:28:52.246Z,33.10
2023-02-03T04:29:52.398Z,32.50
2023-02-03T04:30:52.570Z,34.40
2023-02-03T04:31:52.791Z,33.20
2023-02-03T04:32:52.866Z,33.80
2023-02-03T04:33:53.059Z,34.40
2023-02-03T04:34:53.231Z,35.40
2023-02-03T04:35:53.438Z,34.90
2023-02-03T04:36:53.631Z,35.40
2023-02-03T04:37:53.759Z,37.10
2023-02-03T04:38:53.877Z,36.40
2023-02-03T04:39:54.009Z,37.60
2023-02-03T04:40:54.115Z,39.40
2023-02-03T04:41:54.253Z,37.90
2023-02-03T04:42:54.363Z,38.20
2023-02-03T04:43:54.479Z,40.40
2023-02-03T04:44:54.587Z,40.10
2023-02-03T04:45:54.774Z,42.00
2023-02-03T04:46:54.901Z,39.40
2023-02-03T04:47:55.012Z,40.70
2023-02-03T04:48:55.139Z,41.80
2023-02-03T04:49:55.268Z,41.90
2023-02-03T04:50:55.383Z,41.70
2023-02-03T04:51:55.511Z,44.30
2023-02-03T04:52:55.615Z,45.30
2023-02-03T04:53:55.745Z,44.00
2023-02-03T04:54:55.906Z,46.30
2023-02-03T04:55:55.993Z,45.40
2023-02-03T04:56:56.120Z,45.40
2023-02-03T04:57:56.231Z,47.50
2023-02-03T04:58:56.331Z,47.80
2023-02-03T04:59:56.462Z,47.80
2023-02-03T05:00:56.683Z,48.30
2023-02-03T05:01:56.773Z,49.00
2023-02-03T05:02:56.989Z,49.90
2023-02-03T05:03:57.062Z,51.80
2023-02-03T05:04:57.217Z,51.00
2023-02-03T05:05:57.419Z,53.40
2023-02-03T05:06:57.596Z,59.30
2023-02-03T05:07:57.707Z,54.10
2023-02-03T05:08:57.812Z,55.80
2023-02-03T05:09:57.933Z,56.60
2023-02-03T05:10:59.156Z,55.50
2023-02-03T05:11:58.147Z,56.10
2023-02-03T05:12:58.242Z,57.10
2023-02-03T05:13:58.356Z,56.90
2023-02-03T05:14:58.454Z,58.30
2023-02-03T05:15:58.596Z,58.40
2023-02-03T05:16:58.763Z,61.60
2023-02-03T05:17:58.869Z,61.60
2023-02-03T05:18:58.996Z,62.40
2023-02-03T05:19:59.101Z,62.40
2023-02-03T05:20:59.193Z,62.50
2023-02-03T05:21:59.325Z,61.70
2023-02-03T05:22:59.433Z,63.20
2023-02-03T05:23:59.551Z,64.10
2023-02-03T05:24:59.646Z,66.20
2023-02-03T05:25:59.765Z,66.20
2023-02-03T05:26:59.885Z,65.10
2023-02-03T05:28:00.042Z,67.90
2023-02-03T05:29:00.171Z,69.10
2023-02-03T05:30:00.296Z,69.90
2023-02-03T05:31:00.553Z,69.70
2023-02-03T05:32:00.731Z,70.30
2023-02-03T05:33:00.699Z,70.90
2023-02-03T05:34:00.802Z,69.80
2023-02-03T05:35:00.915Z,71.90
2023-02-03T05:36:01.015Z,72.30
2023-02-03T05:37:01.133Z,72.80
2023-02-03T05:38:01.232Z,73.80
2023-02-03T05:39:01.327Z,74.60
2023-02-03T05:40:01.423Z,74.60
2023-02-03T05:41:01.522Z,75.40
2023-02-03T05:42:01.641Z,76.10
2023-02-03T05:43:01.737Z,76.20
2023-02-03T05:44:01.857Z,74.70
2023-02-03T05:45:01.948Z,76.70
2023-02-03T05:46:02.109Z,76.30
2023-02-03T05:47:02.201Z,78.80
2023-02-03T05:48:02.288Z,78.00
2023-02-03T05:49:02.374Z,76.90
2023-02-03T05:50:02.485Z,79.80
2023-02-03T05:51:02.573Z,75.90
2023-02-03T05:52:02.685Z,76.80
2023-02-03T05:53:02.762Z,77.70
2023-02-03T05:54:02.997Z,77.00
2023-02-03T05:55:03.101Z,78.60
2023-02-03T05:56:03.324Z,76.50
2023-02-03T05:57:03.434Z,77.90
2023-02-03T05:58:03.532Z,77.00
2023-02-03T05:59:03.656Z,76.80
2023-02-03T06:00:03.767Z,74.40
2023-02-03T06:01:03.846Z,75.70
2023-02-03T06:02:04.092Z,77.00
2023-02-03T06:03:04.202Z,76.60
2023-02-03T06:04:04.368Z,75.40
2023-02-03T06:05:04.393Z,76.70
2023-02-03T06:06:04.466Z,78.90
2023-02-03T06:07:04.561Z,76.80
2023-02-03T06:08:04.656Z,77.20
2023-02-03T06:09:04.725Z,76.20
2023-02-03T06:10:04.897Z,77.70
2023-02-03T06:11:05.027Z,78.00
2023-02-03T06:12:05.199Z,77.20
2023-02-03T06:13:05.367Z,76.30
2023-02-03T06:14:05.540Z,71.00
2023-02-03T06:15:05.676Z,73.50
2023-02-03T06:16:05.837Z,74.00
2023-02-03T06:17:06.020Z,74.20
2023-02-03T06:18:06.201Z,75.00
2023-02-03T06:19:06.361Z,74.60
2023-02-03T06:20:06.539Z,74.60
2023-02-03T06:21:06.718Z,72.80
2023-02-03T06:22:06.897Z,72.80
2023-02-03T06:23:07.077Z,72.40
2023-02-03T06:24:07.247Z,72.40
2023-02-03T06:25:07.433Z,71.80
2023-02-03T06:26:07.825Z,70.40
2023-02-03T06:27:07.805Z,72.80
2023-02-03T06:28:07.956Z,73.50
2023-02-03T06:29:08.034Z,72.80
2023-02-03T06:30:08.209Z,71.50
2023-02-03T06:31:08.503Z,72.40
2023-02-03T06:32:08.554Z,72.80
2023-02-03T06:33:08.593Z,73.20
2023-02-03T06:34:08.757Z,74.20
2023-02-03T06:35:08.948Z,75.70
2023-02-03T06:36:09.012Z,75.10
2023-02-03T06:37:09.120Z,73.40
2023-02-03T06:38:09.203Z,74.20
2023-02-03T06:39:09.403Z,74.60
2023-02-03T06:40:09.582Z,73.00
2023-02-03T06:41:09.767Z,73.00
2023-02-03T06:42:09.867Z,71.60
2023-02-03T06:43:10.006Z,71.00
2023-02-03T06:44:10.091Z,73.60
2023-02-03T06:45:10.189Z,73.30
2023-02-03T06:46:10.355Z,71.90
2023-02-03T06:47:10.464Z,71.50
2023-02-03T06:48:10.542Z,72.00
2023-02-03T06:49:10.720Z,71.80
2023-02-03T06:50:10.835Z,71.60
2023-02-03T06:51:10.913Z,71.50
2023-02-03T06:52:11.002Z,72.90
2023-02-03T06:53:11.114Z,75.10
2023-02-03T06:54:11.180Z,72.80
2023-02-03T06:55:11.377Z,70.00
2023-02-03T06:56:11.477Z,70.50
2023-02-03T06:57:11.585Z,72.30
2023-02-03T06:58:11.650Z,71.10
2023-02-03T06:59:11.843Z,71.20
2023-02-03T07:00:13.902Z,70.30
2023-02-03T07:01:12.133Z,70.40
2023-02-03T07:02:12.245Z,67.90
2023-02-03T07:03:12.324Z,69.50
2023-02-03T07:04:12.390Z,68.30
2023-02-03T07:05:12.636Z,69.00
2023-02-03T07:06:12.703Z,69.90
2023-02-03T07:07:12.799Z,72.00
2023-02-03T07:08:12.859Z,70.80
2023-02-03T07:09:13.096Z,70.30
2023-02-03T07:10:13.178Z,70.40
2023-02-03T07:11:13.341Z,68.70
2023-02-03T07:12:13.433Z,69.50
2023-02-03T07:13:13.522Z,68.10
2023-02-03T07:14:13.723Z,69.00
2023-02-03T07:15:13.806Z,68.70
2023-02-03T07:16:13.881Z,69.30
2023-02-03T07:17:14.058Z,71.50
2023-02-03T07:18:18.030Z,69.90
2023-02-03T07:19:15.265Z,71.50
2023-02-03T07:20:14.433Z,71.30
2023-02-03T07:21:14.621Z,69.90
2023-02-03T07:22:14.701Z,69.20
2023-02-03T07:23:14.909Z,70.70
2023-02-03T07:24:14.971Z,69.40
2023-02-03T07:25:15.153Z,70.30
2023-02-03T07:26:15.221Z,67.90
2023-02-03T07:27:15.413Z,70.20
2023-02-03T07:28:15.494Z,69.50
2023-02-03T07:29:15.656Z,64.40
2023-02-03T07:30:15.707Z,62.70
2023-02-03T07:31:15.941Z,63.40
2023-02-03T07:32:16.040Z,64.60
2023-02-03T07:33:16.107Z,66.40
2023-02-03T07:34:16.276Z,65.30
2023-02-03T07:35:16.456Z,65.90
2023-02-03T07:36:16.616Z,64.90
2023-02-03T07:37:16.795Z,64.70
2023-02-03T07:38:16.959Z,66.10
2023-02-03T07:39:17.125Z,63.30
2023-02-03T07:40:17.304Z,65.90
2023-02-03T07:41:18.263Z,66.50
2023-02-03T07:42:17.615Z,62.60
2023-02-03T07:43:17.662Z,61.50
2023-02-03T07:44:17.905Z,61.20
2023-02-03T07:45:18.001Z,58.10
2023-02-03T07:46:18.091Z,58.30
2023-02-03T07:47:18.179Z,57.90
2023-02-03T07:48:18.341Z,62.60
2023-02-03T07:49:18.503Z,60.20
2023-02-03T07:50:18.652Z,60.10
2023-02-03T07:51:18.835Z,59.50
2023-02-03T07:52:21.047Z,59.60
2023-02-03T07:53:19.203Z,58.70
2023-02-03T07:54:19.260Z,60.00
2023-02-03T07:55:19.482Z,59.80
2023-02-03T07:56:19.510Z,56.60
2023-02-03T07:57:19.689Z,55.40
2023-02-03T07:58:19.863Z,55.60
2023-02-03T07:59:20.034Z,56.40
2023-02-03T08:00:20.076Z,55.50
2023-02-03T08:01:20.264Z,56.30
2023-02-03T08:02:20.439Z,50.30
2023-02-03T08:03:20.621Z,51.60
2023-02-03T08:04:20.670Z,49.70
2023-02-03T08:05:20.853Z,50.20
2023-02-03T08:06:21.036Z,53.70
2023-02-03T08:07:21.223Z,51.30
2023-02-03T08:08:21.284Z,53.80
2023-02-03T08:09:21.443Z,53.70
2023-02-03T08:10:21.605Z,53.40
2023-02-03T08:11:21.780Z,55.60
2023-02-03T08:12:21.951Z,72.90
2023-02-03T08:13:22.131Z,56.20
2023-02-03T08:14:22.287Z,54.50
2023-02-03T08:15:22.471Z,52.00
2023-02-03T08:16:22.714Z,54.40
2023-02-03T08:17:22.804Z,49.60
2023-02-03T08:18:22.863Z,50.10
2023-02-03T08:19:30.025Z,49.40
2023-02-03T08:20:23.143Z,46.00
2023-02-03T08:21:23.306Z,44.40
2023-02-03T08:22:23.489Z,48.10
2023-02-03T08:23:23.688Z,47.60
2023-02-03T08:24:23.828Z,46.40
2023-02-03T08:25:23.907Z,46.50
2023-02-03T08:26:24.064Z,47.90
2023-02-03T08:27:24.384Z,46.80
2023-02-03T08:28:24.320Z,53.10
2023-02-03T08:29:24.599Z,61.10
2023-02-03T08:30:24.642Z,52.30
2023-02-03T08:31:25.947Z,55.30
2023-02-03T08:32:25.073Z,47.10
2023-02-03T08:33:25.080Z,46.10
2023-02-03T08:34:25.313Z,45.70
2023-02-03T08:35:25.337Z,39.60
2023-02-03T08:36:25.523Z,43.00
2023-02-03T08:37:25.736Z,43.30
2023-02-03T08:38:25.795Z,39.40
2023-02-03T08:39:25.974Z,40.00
2023-02-03T08:40:26.612Z,40.40
2023-02-03T08:41:26.229Z,40.50
2023-02-03T08:42:26.417Z,39.50
2023-02-03T08:43:26.509Z,40.30
2023-02-03T08:44:26.584Z,40.20
2023-02-03T08:45:26.853Z,40.10
2023-02-03T08:46:26.895Z,44.00
2023-02-03T08:47:27.076Z,39.00
2023-02-03T08:48:27.253Z,40.60
2023-02-03T08:49:27.310Z,38.60
2023-02-03T08:50:28.868Z,39.70
2023-02-03T08:51:27.747Z,38.30
2023-02-03T08:52:27.822Z,40.00
2023-02-03T08:53:27.980Z,37.10
2023-02-03T08:54:28.142Z,37.90
2023-02-03T08:55:28.332Z,40.00
2023-02-03T08:56:28.366Z,40.90
2023-02-03T08:57:28.550Z,37.20
2023-02-03T08:58:28.703Z,36.60
2023-02-03T08:59:28.889Z,33.40
2023-02-03T09:00:29.512Z,36.30
2023-02-03T09:01:29.178Z,34.90
2023-02-03T09:02:29.266Z,34.20
2023-02-03T09:03:29.448Z,34.10
2023-02-03T09:04:29.614Z,33.80
2023-02-03T09:05:29.770Z,32.90
2023-02-03T09:06:29.916Z,34.60
2023-02-03T09:07:30.099Z,37.00
2023-02-03T09:08:30.230Z,33.10
2023-02-03T09:09:30.976Z,34.80
2023-02-03T09:10:30.933Z,33.90
2023-02-03T09:11:30.762Z,33.90
2023-02-03T09:12:30.941Z,33.00
2023-02-03T09:13:31.011Z,32.20
2023-02-03T09:14:31.166Z,33.20
2023-02-03T09:15:31.337Z,33.60
2023-02-03T09:16:31.610Z,32.10
2023-02-03T09:17:31.699Z,30.90
2023-02-03T09:18:31.738Z,32.80
2023-02-03T09:19:32.640Z,38.80
2023-02-03T09:20:32.419Z,33.70
2023-02-03T09:21:34.147Z,33.00
2023-02-03T09:22:33.383Z,34.60
2023-02-03T09:23:32.454Z,32.70
2023-02-03T09:24:32.592Z,40.80
2023-02-03T09:25:32.754Z,40.50
2023-02-03T09:26:32.897Z,39.10
2023-02-03T09:27:33.077Z,33.60
2023-02-03T09:28:33.111Z,33.50
2023-02-03T09:29:33.286Z,29.90
2023-02-03T09:30:33.420Z,28.00
2023-02-03T09:31:33.525Z,26.10
2023-02-03T09:32:33.583Z,27.60
2023-02-03T09:33:33.630Z,26.10
2023-02-03T09:34:33.807Z,27.30
2023-02-03T09:35:33.968Z,27.90
2023-02-03T09:36:34.123Z,26.90
2023-02-03T09:37:34.292Z,26.20
2023-02-03T09:38:34.442Z,28.00
2023-02-03T09:39:34.595Z,27.90
2023-02-03T09:40:34.763Z,27.80
2023-02-03T09:41:34.936Z,26.10
2023-02-03T09:42:36.068Z,26.60
2023-02-03T09:43:35.785Z,26.70
2023-02-03T09:44:35.552Z,27.20
2023-02-03T09:45:35.537Z,24.30
2023-02-03T09:46:35.656Z,26.30
2023-02-03T09:47:36.029Z,24.00
2023-02-03T09:48:35.962Z,23.20
2023-02-03T09:49:36.108Z,24.00
2023-02-03T09:50:36.269Z,24.40
2023-02-03T09:51:36.467Z,24.50
2023-02-03T09:52:36.511Z,23.30
2023-02-03T09:53:36.670Z,22.50
2023-02-03T09:54:36.821Z,23.50
2023-02-03T09:55:36.979Z,23.00
2023-02-03T09:56:37.332Z,22.10
2023-02-03T09:57:37.303Z,23.00
2023-02-03T09:58:37.445Z,22.20
2023-02-03T09:59:38.170Z,23.70
2023-02-03T10:00:37.819Z,22.90
2023-02-03T10:01:37.898Z,22.80
2023-02-03T10:02:37.993Z,23.90
2023-02-03T10:03:38.141Z,22.50
2023-02-03T10:04:38.282Z,21.60
2023-02-03T10:05:38.464Z,22.00
2023-02-03T10:06:38.600Z,22.10
2023-02-03T10:07:38.766Z,22.10
2023-02-03T10:08:38.924Z,21.10
2023-02-03T10:09:39.088Z,21.40
2023-02-03T10:10:39.233Z,21.50
2023-02-03T10:11:39.383Z,21.70
2023-02-03T10:12:39.547Z,20.90
2023-02-03T10:13:39.691Z,18.70
2023-02-03T10:14:39.842Z,19.60
2023-02-03T10:15:40.019Z,24.00
2023-02-03T10:16:40.260Z,20.30
2023-02-03T10:17:40.293Z,18.80
2023-02-03T10:18:40.461Z,18.30
2023-02-03T10:19:40.603Z,17.70
2023-02-03T10:20:40.759Z,17.70
2023-02-03T10:21:40.927Z,16.60
2023-02-03T10:22:41.099Z,18.10
2023-02-03T10:23:41.256Z,16.70
2023-02-03T10:24:41.404Z,16.50
2023-02-03T10:25:41.552Z,16.70
2023-02-03T10:26:41.698Z,18.70
2023-02-03T10:27:41.878Z,15.80
2023-02-03T10:28:42.043Z,16.60
2023-02-03T10:29:42.283Z,16.70
2023-02-03T10:30:42.398Z,16.70
2023-02-03T10:31:42.607Z,15.50
2023-02-03T10:32:42.607Z,15.80
2023-02-03T10:33:42.682Z,17.50
2023-02-03T10:34:42.818Z,16.70
2023-02-03T10:35:42.993Z,16.80
2023-02-03T10:36:43.148Z,15.50
2023-02-03T10:37:43.312Z,15.40
2023-02-03T10:38:43.476Z,15.60
2023-02-03T10:39:43.628Z,18.00
2023-02-03T10:40:43.817Z,16.00
2023-02-03T10:41:43.975Z,15.10
2023-02-03T10:42:45.000Z,16.50
2023-02-03T10:43:44.278Z,15.40
2023-02-03T10:44:44.459Z,15.60
2023-02-03T10:45:44.650Z,15.40
2023-02-03T10:46:44.723Z,14.60
2023-02-03T10:47:44.858Z,16.40
2023-02-03T10:48:44.915Z,18.10
2023-02-03T10:49:45.057Z,17.20
2023-02-03T10:50:45.228Z,17.00
2023-02-03T10:51:45.911Z,16.30
2023-02-03T10:52:45.535Z,15.70
2023-02-03T10:53:45.562Z,14.60
2023-02-03T10:54:45.712Z,9.80
2023-02-03T10:55:45.860Z,5.90
2023-02-03T10:56:46.045Z,4.80
2023-02-03T10:57:46.098Z,5.10
2023-02-03T10:58:46.268Z,4.30
2023-02-03T10:59:46.445Z,3.70
2023-02-03T11:00:46.605Z,4.40
2023-02-03T11:01:46.835Z,4.10
2023-02-03T11:02:47.009Z,4.00
2023-02-03T11:03:47.056Z,4.60
2023-02-03T11:04:47.228Z,3.70
2023-02-03T11:05:47.387Z,4.80
2023-02-03T11:06:47.557Z,3.60
2023-02-03T11:07:47.749Z,4.40
2023-02-03T11:08:47.907Z,3.30
2023-02-03T11:09:48.057Z,2.80
2023-02-03T11:10:48.246Z,3.90
2023-02-03T11:11:48.389Z,3.80
2023-02-03T11:12:48.562Z,3.30
2023-02-03T11:13:48.700Z,3.90
2023-02-03T11:14:48.844Z,4.00
2023-02-03T11:15:49.073Z,4.00
2023-02-03T11:16:49.154Z,4.80
2023-02-03T11:17:49.290Z,3.90
2023-02-03T11:18:49.479Z,3.80
2023-02-03T11:19:49.602Z,3.80
2023-02-03T11:20:49.767Z,4.10
2023-02-03T11:21:49.913Z,4.10
2023-02-03T11:22:50.070Z,3.80
2023-02-03T11:23:50.215Z,4.20
2023-02-03T11:24:50.351Z,4.70
2023-02-03T11:25:50.506Z,6.50
2023-02-03T11:26:50.654Z,4.40
2023-02-03T11:27:50.872Z,4.60
2023-02-03T11:28:50.915Z,5.40
2023-02-03T11:29:51.037Z,4.00
2023-02-03T11:30:51.245Z,4.00
2023-02-03T11:31:51.424Z,4.40
2023-02-03T11:32:51.488Z,4.70
2023-02-03T11:33:51.611Z,5.20
2023-02-03T11:34:51.750Z,5.60
2023-02-03T11:35:51.989Z,4.40
2023-02-03T11:36:52.013Z,5.00
2023-02-03T11:37:52.178Z,4.60
2023-02-03T11:38:52.320Z,4.30
2023-02-03T11:39:52.452Z,4.90
2023-02-03T11:40:52.587Z,5.10
2023-02-03T11:41:52.719Z,6.00
2023-02-03T11:42:52.898Z,6.20
2023-02-03T11:43:53.055Z,5.60
2023-02-03T11:44:53.183Z,5.20
2023-02-03T11:45:53.307Z,5.10
2023-02-03T11:46:53.439Z,5.30
2023-02-03T11:47:53.581Z,5.10
2023-02-03T11:48:53.733Z,5.90
2023-02-03T11:49:53.854Z,5.40
2023-02-03T11:50:54.028Z,5.10
2023-02-03T11:51:54.050Z,5.10
2023-02-03T11:52:54.213Z,5.30
2023-02-03T11:53:57.141Z,5.70
2023-02-03T11:54:54.441Z,5.20
2023-02-03T11:55:54.544Z,5.70
2023-02-03T11:56:54.651Z,5.80
2023-02-03T11:57:54.794Z,5.30
2023-02-03T11:58:54.900Z,5.30
2023-02-03T11:59:55.023Z,5.00
2023-02-03T12:00:55.134Z,5.10
2023-02-03T12:01:55.203Z,5.00
2023-02-03T12:02:55.375Z,5.50
2023-02-03T12:03:55.434Z,5.20
2023-02-03T12:04:55.595Z,5.20
2023-02-03T12:05:55.559Z,5.10
2023-02-03T12:06:55.664Z,5.00
2023-02-03T12:07:55.765Z,5.60
2023-02-03T12:08:55.863Z,5.60
2023-02-03T12:09:55.943Z,5.50
2023-02-03T12:10:56.041Z,5.60
2023-02-03T12:11:56.131Z,5.80
2023-02-03T12:12:56.247Z,5.10
2023-02-03T12:13:56.333Z,5.20
2023-02-03T12:14:56.445Z,5.80
2023-02-03T12:15:56.576Z,5.60
2023-02-03T12:16:56.678Z,5.90
2023-02-03T12:17:56.791Z,6.20
2023-02-03T12:18:56.905Z,6.00
2023-02-03T12:19:56.961Z,5.70
2023-02-03T12:20:57.049Z,6.00
2023-02-03T12:21:57.155Z,6.40
2023-02-03T12:22:57.247Z,5.90
2023-02-03T12:23:57.341Z,6.40
2023-02-03T12:24:57.408Z,6.40
2023-02-03T12:25:57.510Z,6.30
2023-02-03T12:26:57.573Z,6.30
2023-02-03T12:27:58.685Z,6.40
2023-02-03T12:28:57.751Z,6.70
2023-02-03T12:29:57.834Z,6.60
2023-02-03T12:30:58.022Z,6.50
2023-02-03T12:31:58.018Z,7.00
2023-02-03T12:32:58.067Z,6.70
2023-02-03T12:33:58.170Z,6.90
2023-02-03T12:34:58.253Z,6.50
2023-02-03T12:35:58.312Z,6.60
2023-02-03T12:36:58.428Z,7.30
2023-02-03T12:37:58.519Z,7.10
2023-02-03T12:38:58.609Z,6.50
2023-02-03T12:39:58.728Z,6.90
2023-02-03T12:40:58.800Z,6.50
2023-02-03T12:41:58.898Z,6.90
2023-02-03T12:42:58.987Z,6.40
2023-02-03T12:43:59.052Z,6.90
2023-02-03T12:44:59.149Z,6.90
2023-02-03T12:45:59.244Z,6.20
2023-02-03T12:46:59.331Z,6.70
2023-02-03T12:47:59.404Z,6.20
2023-02-03T12:48:59.480Z,7.00
2023-02-03T12:49:59.546Z,6.80
2023-02-03T12:50:59.639Z,7.30
2023-02-03T12:51:59.750Z,7.00
2023-02-03T12:52:59.859Z,7.80
2023-02-03T12:53:59.966Z,6.50
2023-02-03T12:55:00.099Z,7.20
2023-02-03T12:56:00.165Z,8.20
2023-02-03T12:57:00.276Z,8.00
2023-02-03T12:58:00.408Z,7.60
2023-02-03T12:59:00.530Z,7.40
2023-02-03T13:00:00.651Z,8.30